Weather observations for the past three days for
Rogue Valley International Airport
Imperial (Metric)
Date Time (pdt) Wind (mph) Vis. (mi.) Weather Sky Cond. Temperature (ºF) Relative Humidity Wind Chill (°F) Heat Index (°F) Pressure Precipitation (in)
Air Dwpt 6 hour altimeter (in) sea level (mb) 1 hr 3 hr 6 hr
Max. Min.
08 04:53 Calm 10.00 Fair CLR 50 44.1 64 50 80% 30.07 1017.5
08 03:53 Calm 10.00 Fair CLR 51.1 44.1 77% 30.06 1017.1
08 02:53 NE 5 10.00 Fair CLR 54 45 72% 30.05 1016.9
08 01:53 S 3 10.00 Fair CLR 55 43 64% 30.04 1016.3
08 00:53 S 3 10.00 Fair CLR 60.1 42.1 52% 30.04 1016.3
07 23:53 Calm 10.00 Fair CLR 62.1 46.9 58% 30.03 1016.3
07 22:53 NE 6 10.00 Fair CLR 63 46.9 84.9 63 56% 30.02 1016.0
07 21:53 NE 8 10.00 Fair CLR 66 46.9 50% 30 1015.4
07 20:53 N 9 10.00 Fair CLR 68 48 49% 29.97 1014.4
07 19:53 N 10 10.00 Fair CLR 75 48 39% 77 29.94 1013.2
07 18:53 NW 9 10.00 Fair CLR 82.9 42.1 24% 81 29.93 1012.8
07 17:53 NW 13 10.00 Fair CLR 84 42.1 23% 81 29.95 1013.3
07 16:53 NW 15 10.00 Fair CLR 84.9 39.9 86 68 20% 82 29.95 1013.3
07 15:53 NW 13 G 18 10.00 Fair CLR 84.9 33.1 15% 82 29.96 1013.6
07 14:53 NE 7 10.00 Fair CLR 82 37 20% 80 29.99 1014.5
07 13:53 Vrbl 5 10.00 Fair CLR 80.1 43 27% 79 30 1015.1
07 12:53 Calm 10.00 Fair CLR 75.9 46.9 36% 78 30.03 1015.9
07 11:53 N 3 10.00 Fair CLR 71.1 48 44% 30.05 1016.9
07 10:53 Vrbl 5 10.00 Fair CLR 68 48 68 46.9 49% 30.07 1017.6
07 09:53 Calm 10.00 Fair CLR 63 46.9 56% 30.08 1018.0
07 08:53 Calm 10.00 Fair CLR 57.9 46.9 67% 30.09 1018.5
07 07:53 NW 3 10.00 Fair CLR 54 46.9 77% 30.1 1018.8
07 06:53 Calm 10.00 Fair CLR 51.1 45 80% 30.09 1018.5
07 05:53 S 3 10.00 Fair CLR 50 44.1 80% 30.08 1018.0
07 04:53 Calm 10.00 Fair CLR 50 44.1 64 48.9 80% 30.08 1018.0
07 03:53 NE 3 10.00 Fair CLR 50 44.1 80% 30.09 1018.1
07 02:53 N 3 10.00 Fair CLR 53.1 46 77% 30.09 1018.0
07 01:53 Calm 10.00 Fair CLR 55 46 72% 30.09 1018.3
07 00:53 SE 3 10.00 Fair CLR 59 45 60% 30.09 1018.2
06 23:53 Calm 10.00 Fair CLR 61 45 56% 30.09 1018.1
06 22:53 E 5 10.00 Fair CLR 61 45 84 61 56% 30.08 1018.1
06 21:53 E 3 10.00 Fair CLR 66 46 49% 30.08 1018.1
06 20:53 NE 7 10.00 Fair CLR 66.9 46.9 49% 30.07 1017.6
06 19:53 N 6 10.00 Fair CLR 73 46 38% 30.05 1016.8
06 18:53 N 14 10.00 Fair CLR 78.1 48 35% 78 30.03 1016.2
06 17:53 NW 13 10.00 Fair CLR 84 46.9 27% 82 30.01 1015.5
06 16:53 W 15 G 23 10.00 Fair CLR 84 41 84 66.9 22% 81 30.01 1015.3
06 15:53 NW 10 10.00 Fair CLR 82.9 44.1 25% 81 30.01 1015.6
06 14:53 NE 6 10.00 Fair CLR 82 44.1 26% 80 30.04 1016.3
06 13:53 Calm 10.00 Fair CLR 78.1 46.9 33% 78 30.06 1017.1
06 12:53 Calm 10.00 Fair CLR 73.9 51.1 45% 30.08 1018.0
06 11:53 Vrbl 3 10.00 Fair CLR 72 48.9 44% 30.1 1018.7
06 10:53 NW 7 10.00 Fair CLR 68 50 68 46.9 53% 30.11 1019.1
06 09:53 Calm 10.00 Fair CLR 63 46.9 56% 30.12 1019.3
06 08:53 Calm 10.00 Fair CLR 57.9 46 65% 30.13 1019.8
06 07:53 Calm 10.00 Fair CLR 54 46 75% 30.12 1019.5
06 06:53 S 3 10.00 Fair CLR 52 46 80% 30.1 1018.6
06 03:53 N 3 10.00 Fair CLR 51.1 44.1 77% 30.06 1017.2
06 02:53 Calm 10.00 Fair CLR 54 44.1 69% 30.04 1016.8
06 01:53 Calm 10.00 Fair CLR 57 45 64% 30.04 1016.5
06 00:53 Calm 10.00 Fair CLR 59 45 60% 30.03 1016.1
05 23:53 Calm 10.00 Fair CLR 59 43 56% 30 1015.4
05 22:53 NE 3 10.00 Fair CLR 62.1 43 80.1 59 50% 29.99 1014.9
05 21:53 NE 6 10.00 Fair CLR 64.9 45 49% 29.97 1014.3
05 20:53 N 6 10.00 Fair CLR 66 45 47% 29.94 1013.3
05 19:53 N 6 10.00 Fair CLR 72 46 40% 29.91 1012.2
05 18:53 N 10 10.00 Fair CLR 77 45 32% 78 29.89 1011.5
05 17:53 Vrbl 3 10.00 Fair CLR 79 48.9 35% 79 29.88 1011.2
05 16:53 Calm 10.00 Fair CLR 78.1 48.9 79 63 36% 79 29.88 1011.1
05 15:53 N 5 10.00 Fair CLR 78.1 51.1 39% 79 29.9 1011.6
05 14:53 Calm 10.00 Fair CLR 75 48 39% 77 29.92 1012.3
05 13:53 Vrbl 3 10.00 Fair CLR 72 46.9 41% 29.93 1013.1
05 12:53 Vrbl 3 10.00 Fair CLR 68 48 49% 29.95 1013.7
05 11:53 NE 5 10.00 Fair CLR 64 48 56% 29.97 1014.3
05 10:53 Vrbl 5 10.00 Partly Cloudy SCT028 62.1 48 62.1 53.1 60% 29.97 1014.6
05 09:53 Vrbl 3 10.00 Overcast OVC034 60.1 48 65% 29.98 1014.9
05 08:53 Calm 10.00 Overcast OVC029 57 48.9 74% 29.99 1015.0
05 07:53 Calm 10.00 Overcast OVC029 54 48.9 83% 29.98 1014.7
05 06:53 N 7 10.00 Overcast OVC027 53.1 48 83% 29.97 1014.2
05 05:53 N 5 10.00 Overcast OVC024 54 48.9 83% 29.95 1013.6
Date Time (pdt) Wind (mph) Vis. (mi.) Weather Sky Cond. Air Dwpt Max. Min. Relative Humidity Wind Chill (°F) Heat Index (°F) altimeter (in) sea level (mb) 1 hr 3 hr 6 hr
6 hour
Temperature (ºF) Pressure Precipitation (in)